Elkins-Randolph Co-Jennings Randolph Field
KEKN : now visible

Airfield :











YOU CAN JOIN US ON...

 
LOGIN :

Register | Disclaimer

   EN    FR    IT 

 









Legend :    VFR   Marginal VFR   IFR   Intensive IFR   Very Intensive IFR
Visi :
Ceiling :
>= 8 km
>= 3000ft
5 to 8 km
1000 to 3000 ft
1500m to 5 km
500 to 1000 ft
800 to 1500m
200 to 500 ft
< 800m
< 200 ft
Symbols :   Thunderstorms  Fog  Heavy snow  Heavy precipitations  Wind > 20 kt






- Airport Elevation : 1987 ft


KEKN - Elkins-Randolph Co-Jennings Randolph Field

CURRENT METAR :
  • 212024Z AUTO 32007KT 1/2SM SN FG BKN009 OVC033 00/M02 A2993 RMK AO2 P0002 T00001022

EXPIRED METARs :
  • 212010Z AUTO 31012G20KT 1/4SM +SN BKN013 BKN030 OVC044 01/M03 A2993 RMK AO2 P0000 T00061028
  • 211951Z AUTO 29011G18KT 3/4SM -SN BKN018 BKN025 OVC032 01/M03 A2993 RMK AO2 RAB18E22SNE09B30 SLP152 P0001 T00111033
  • 211936Z AUTO 29010KT 2 1/2SM -SN BKN025 OVC039 03/M03 A2993 RMK AO2 RAB18E22SNE09B30 P0000 T00281033
  • 211851Z AUTO 28010KT 8SM -SN FEW020 BKN032 OVC040 03/M03 A2994 RMK AO2 SLP153 P0000 T00331033
  • 211834Z AUTO 30009KT 8SM -SN SCT018 BKN026 OVC043 02/M03 A2994 RMK AO2 P0000 T00221033
  • 211805Z AUTO 31010KT 2SM -SN FEW015 BKN021 OVC047 01/M03 A2994 RMK AO2 P0000 T00111033
  • 211736Z AUTO 28009KT 2SM -SN FEW013 BKN019 OVC039 02/M03 A2994 RMK AO2 P0001 T00171028

TAF KEKN
Valid from the 21 at 20:00 until the 22 at 18:00 UTC


211956Z 2120/2218 30013G20KT 4SM -SHSN BKN018
TEMPO 2120/2122 2SM -SHSN BKN025
FM212300 30014G24KT 6SM BR BKN024
FM220300 28006KT P6SM BKN026
FM221500 28012G22KT P6SM BKN035
KZDC FIR / North America



MET'MAP, your aeronautical weather chart ! - Copyright ORBIFLY December 2007 - Disclaimer

ORBIFLY MET'MAP TEAM :

Programming & Development : Alexandra Zaïnal
Concept & original design : Baudouin d'Aumeries
Assistance for programming : Marc-Olivier Méhu
Technical & hardware support : Manuel Goepfert

Contact : metmap@orbifly.com




SOURCES & CREDITS :

   NOAA       Earth
Advisory